Latest Weather Observations for Weipa

IDQ60801

Issued at 9:32 pm EST Thursday 23 February 2017 (issued every 30 minutes, with the page automatically refreshed every 10 minutes)

About weather observations | Map of weather stations | Latest weather observations for QLD | Other Formats
Station Details ID: 027045 Name: WEIPA AERO Lat: -12.68 Lon: 141.92 Height: 17.96 m
Data from the previous 72 hours. | See also: Recent months at Weipa
Date/Time
EST
Temp
°C
App
Temp
°C
Dew
Point
°C
Rel
Hum
%
Delta-T
°C
Wind Press
QNH
hPa
Press
MSL
hPa
Rain since
9am
mm
Dir  Spd
km/h
Gust
km/h
Spd
kts
Gust
kts
23/09:00pm 28.4 34.9 25.1 82 2.3 CALM 0 4 0 2 1010.0 1009.8 0.0
23/08:30pm 28.4 33.9 24.6 80 2.6 WSW 4 6 2 3 1009.7 - 0.0
23/08:00pm 28.5 33.6 24.7 80 2.7 WSW 6 9 3 5 1009.2 - 0.0
23/07:30pm 28.8 33.9 24.7 78 2.9 WSW 6 11 3 6 1008.9 - 0.0
23/07:00pm 29.4 34.5 24.9 77 3.2 W 7 15 4 8 1008.5 - 0.0
23/06:30pm 30.5 35.4 25.3 74 3.7 W 9 15 5 8 1008.3 - 0.0
23/06:00pm 31.1 35.7 25.4 71 4.0 W 11 17 6 9 1008.0 1007.8 0.0
23/05:30pm 31.7 36.7 25.4 69 4.5 W 9 17 5 9 1007.9 - 0.0
23/05:00pm 31.7 35.8 25.2 68 4.6 W 13 19 7 10 1007.7 - 0.0
23/04:30pm 32.9 37.8 24.4 61 6.0 W 6 13 3 7 1007.7 - 0.0
23/04:00pm 33.4 36.8 22.7 53 7.4 ESE 9 20 5 11 1007.9 - 0.0
23/03:30pm 32.9 36.2 22.6 54 7.1 ESE 9 13 5 7 1008.2 - 0.0
23/03:00pm 32.8 36.9 22.2 53 7.2 NE 4 7 2 4 1008.2 1008.0 0.0
23/02:30pm 32.7 37.4 23.4 58 6.4 SSE 4 7 2 4 1008.6 - 0.0
23/02:00pm 31.9 36.0 23.2 60 6.0 ESE 7 11 4 6 1009.2 - 0.0
23/01:30pm 32.3 36.8 22.9 57 6.5 ENE 4 7 2 4 1009.7 - 0.0
23/01:00pm 31.7 35.5 22.8 59 6.1 E 7 13 4 7 1010.4 - 0.0
23/12:30pm 31.2 36.4 24.8 69 4.5 SW 6 11 3 6 1011.1 - 0.0
23/12:00pm 30.7 35.2 22.9 63 5.3 NE 4 11 2 6 1011.6 1011.4 0.0
23/11:30am 30.4 34.9 24.0 68 4.4 ESE 7 15 4 8 1012.0 - 0.0
23/11:00am 29.3 33.4 24.0 73 3.7 SE 9 15 5 8 1012.4 - 0.0
23/10:30am 29.3 33.8 24.0 73 3.7 E 7 15 4 8 1012.6 - 0.0
23/10:02am 27.8 32.5 23.4 77 3.0 NE 4 11 2 6 1012.7 - 0.0
23/10:00am 28.1 32.6 23.6 76 3.1 ENE 6 11 3 6 1012.7 - 0.0
23/09:30am 26.9 30.7 23.4 81 2.4 E 9 13 5 7 1012.9 - 0.0
23/09:00am 26.0 30.7 23.9 88 1.4 E 6 9 3 5 1012.8 1012.6 20.4
23/08:30am 25.5 29.8 23.6 89 1.3 ENE 7 13 4 7 1012.7 - 20.4
23/08:06am 25.1 29.1 23.8 92 0.9 NE 9 15 5 8 1012.3 - 20.4
23/08:00am 25.0 29.5 23.9 94 0.8 ENE 7 13 4 7 1012.3 - 20.4
23/07:38am 24.8 29.2 23.8 94 0.7 E 7 11 4 6 1012.0 - 20.4
23/07:30am 24.8 29.2 23.8 94 0.7 E 7 11 4 6 1011.8 - 20.4
23/07:00am 24.7 29.2 23.7 94 0.7 ENE 6 11 3 6 1011.4 - 20.4
23/06:30am 24.8 29.3 23.6 93 0.8 ENE 6 9 3 5 1011.2 - 20.4
23/06:00am 24.9 29.9 23.8 94 0.8 ENE 4 7 2 4 1010.8 1010.6 20.4
23/05:30am 24.9 29.5 23.8 94 0.8 E 6 7 3 4 1010.7 - 20.4
23/05:00am 24.9 29.5 23.8 94 0.8 E 6 7 3 4 1010.4 - 20.4
23/04:30am 24.9 29.6 23.9 94 0.7 E 6 9 3 5 1010.3 - 20.4
23/04:00am 24.9 29.6 23.9 94 0.7 E 6 7 3 4 1010.0 - 20.4
23/03:56am 24.9 29.5 23.8 94 0.8 ESE 6 7 3 4 1010.1 - 20.4
23/03:51am 24.8 29.4 23.8 94 0.7 ESE 6 7 3 4 1010.1 - 20.4
23/03:30am 24.9 29.6 23.9 94 0.7 E 6 9 3 5 1010.4 - 20.4
23/03:00am 25.0 29.6 24.1 95 0.6 E 7 11 4 6 1010.5 1010.3 20.4
23/02:34am 24.9 29.4 24.0 95 0.6 E 7 13 4 7 1010.5 - 20.4
23/02:30am 24.9 29.4 24.0 95 0.6 E 7 9 4 5 1010.5 - 20.4
23/02:00am 25.0 29.7 24.0 94 0.7 E 6 7 3 4 1010.7 - 20.4
23/01:51am 25.0 29.5 24.0 94 0.7 ESE 7 9 4 5 1010.8 - 20.4
23/01:30am 25.2 30.0 24.1 94 0.8 SE 6 9 3 5 1011.2 - 20.4
23/01:08am 25.2 31.2 24.2 94 0.7 CALM 0 2 0 1 1011.5 - 20.4
23/01:00am 25.1 30.6 24.1 94 0.7 N 2 6 1 3 1011.6 - 20.4
23/12:30am 25.2 29.8 24.2 94 0.7 ENE 7 13 4 7 1011.8 - 20.4
23/12:00am 25.2 30.1 24.3 95 0.6 ENE 6 13 3 7 1012.1 1011.9 20.4
 
Date/Time
EST
Temp
°C
App
Temp
°C
Dew
Point
°C
Rel
Hum
%
Delta-T
°C
Wind Press
QNH
hPa
Press
MSL
hPa
Rain since
9am
mm
Dir  Spd
km/h
Gust
km/h
Spd
kts
Gust
kts
22/11:30pm 25.2 30.0 24.1 94 0.8 NE 6 9 3 5 1012.2 - 20.4
22/11:00pm 25.3 31.2 24.1 93 0.8 CALM 0 0 0 0 1012.1 - 20.4
22/10:30pm 25.3 30.5 24.2 94 0.8 ENE 4 6 2 3 1012.1 - 20.4
22/10:00pm 25.3 30.1 24.2 94 0.8 NE 6 7 3 4 1011.8 - 20.2
22/09:30pm 25.5 30.1 24.2 92 0.9 ENE 7 9 4 5 1011.4 - 20.2
22/09:00pm 25.7 30.5 24.4 92 0.9 E 7 9 4 5 1011.4 1011.2 20.2
22/08:30pm 25.9 30.8 24.6 92 0.9 E 7 11 4 6 1011.0 - 20.2
22/08:00pm 26.1 31.0 24.6 91 1.0 E 7 9 4 5 1010.9 - 20.2
22/07:30pm 26.2 31.3 24.6 91 1.1 E 6 7 3 4 1010.7 - 20.2
22/07:00pm 26.3 31.6 24.4 89 1.3 E 4 6 2 3 1010.2 - 20.2
22/06:30pm 26.5 31.8 24.4 88 1.5 NE 4 6 2 3 1009.7 - 20.2
22/06:00pm 26.7 32.3 24.2 86 1.7 ENE 2 6 1 3 1009.1 1008.9 20.0
22/05:30pm 27.1 31.4 24.2 84 2.0 NNE 9 13 5 7 1009.0 - 20.0
22/05:00pm 27.3 31.7 24.5 85 1.9 N 9 15 5 8 1008.6 - 20.0
22/04:30pm 27.8 30.7 24.5 82 2.3 N 17 26 9 14 1008.6 - 20.0
22/04:00pm 28.2 33.5 25.2 84 2.1 N 7 9 4 5 1008.5 - 20.0
22/03:30pm 27.0 33.5 25.0 89 1.4 CALM 0 4 0 2 1008.3 - 20.0
22/03:13pm 26.7 32.6 24.7 89 1.4 ESE 2 6 1 3 1008.7 - 20.0
22/03:04pm 26.4 31.8 24.5 89 1.3 ESE 4 7 2 4 1008.7 - 20.0
22/03:00pm 26.2 31.2 24.5 90 1.2 SE 6 9 3 5 1008.8 1008.6 19.8
22/02:48pm 25.8 30.0 24.1 90 1.2 N 9 15 5 8 1009.1 - 18.4
22/02:30pm 26.8 29.1 24.4 87 1.7 W 20 32 11 17 1009.2 - 7.0
22/02:16pm 27.9 29.8 23.5 77 3.0 NW 19 30 10 16 1009.1 - 1.8
22/02:00pm 30.6 33.2 23.9 67 4.7 W 17 30 9 16 1008.9 - 0.0
22/01:30pm 32.1 35.0 22.5 57 6.6 NNW 11 19 6 10 1009.4 - 0.0
22/01:00pm 32.0 34.7 22.1 55 6.7 NW 11 20 6 11 1009.9 - 0.0
22/12:30pm 32.2 34.3 23.7 61 5.9 NNW 19 24 10 13 1010.3 - 0.0
22/12:00pm 31.6 35.1 23.5 62 5.6 N 11 24 6 13 1010.9 1010.7 0.0
22/11:30am 31.2 34.8 23.8 64 5.1 N 11 19 6 10 1011.1 - 0.0
22/11:00am 30.8 35.3 24.6 69 4.3 N 9 17 5 9 1011.5 - 0.0
22/10:30am 30.4 34.6 24.1 69 4.4 NNE 9 15 5 8 1011.8 - 0.0
22/10:00am 29.7 33.9 24.7 74 3.5 NE 11 17 6 9 1012.0 - 0.0
22/09:30am 28.8 33.5 25.0 80 2.7 NNE 9 17 5 9 1012.0 - 0.0
22/09:00am 27.8 32.4 24.8 84 2.1 NE 9 15 5 8 1012.0 1011.8 0.6
22/08:30am 26.9 31.5 24.8 88 1.5 NE 9 15 5 8 1011.9 - 0.6
22/08:00am 25.9 30.8 24.6 92 0.9 ENE 7 15 4 8 1011.6 - 0.6
22/07:30am 25.0 29.6 24.1 95 0.6 E 7 11 4 6 1011.2 - 0.6
22/07:00am 24.9 29.6 23.9 94 0.7 E 6 11 3 6 1010.9 - 0.6
22/06:30am 24.8 29.4 23.8 94 0.7 ENE 6 7 3 4 1010.7 - 0.6
22/06:00am 24.8 29.4 23.8 94 0.7 E 6 9 3 5 1010.4 1010.2 0.6
22/05:30am 24.9 29.6 23.9 94 0.7 E 6 7 3 4 1010.1 - 0.6
22/05:00am 25.0 30.1 24.0 94 0.7 E 4 6 2 3 1009.9 - 0.6
22/04:30am 25.1 29.9 24.1 94 0.7 ENE 6 11 3 6 1009.8 - 0.6
22/04:00am 25.1 30.9 24.0 94 0.8 CALM 0 4 0 2 1009.5 - 0.6
22/03:30am 25.2 30.3 24.1 94 0.8 ENE 4 6 2 3 1009.3 - 0.6
22/03:00am 25.3 30.1 24.2 94 0.8 ENE 6 7 3 4 1009.7 1009.5 0.6
22/02:30am 25.4 30.2 24.2 93 0.8 E 6 6 3 3 1009.8 - 0.6
22/02:00am 25.5 30.4 24.3 93 0.8 ENE 6 7 3 4 1010.1 - 0.6
22/01:30am 25.6 30.4 24.4 93 0.8 ENE 7 9 4 5 1010.3 - 0.6
22/01:00am 25.8 30.6 24.5 92 0.9 NE 7 9 4 5 1010.6 - 0.6
22/12:30am 25.9 30.7 24.5 92 1.0 NE 7 13 4 7 1011.1 - 0.6
22/12:00am 26.0 30.9 24.6 92 1.0 NE 7 13 4 7 1011.4 1011.2 0.6
 
Date/Time
EST
Temp
°C
App
Temp
°C
Dew
Point
°C
Rel
Hum
%
Delta-T
°C
Wind Press
QNH
hPa
Press
MSL
hPa
Rain since
9am
mm
Dir  Spd
km/h
Gust
km/h
Spd
kts
Gust
kts
21/11:30pm 25.9 31.0 24.6 92 0.9 NE 6 9 3 5 1011.8 - 0.6
21/11:00pm 25.9 30.8 24.4 91 1.0 ENE 6 7 3 4 1011.6 - 0.6
21/10:30pm 26.2 31.6 24.5 90 1.2 NE 4 6 2 3 1011.4 - 0.6
21/10:00pm 26.5 31.6 24.6 89 1.3 NNE 6 7 3 4 1011.4 - 0.6
21/09:30pm 26.3 31.4 24.7 91 1.1 NNE 6 9 3 5 1011.0 - 0.6
21/09:00pm 26.6 31.9 24.9 90 1.2 NE 6 7 3 4 1010.8 1010.6 0.6
21/08:30pm 26.7 33.1 24.9 90 1.3 CALM 0 0 0 0 1010.5 - 0.6
21/08:00pm 26.8 33.3 25.0 90 1.3 CALM 0 0 0 0 1010.3 - 0.6
21/07:30pm 27.0 33.5 25.1 89 1.3 CALM 0 0 0 0 1010.1 - 0.6
21/07:00pm 27.4 33.7 24.8 86 1.8 CALM 0 0 0 0 1009.9 - 0.6
21/06:30pm 27.7 34.0 24.7 84 2.1 CALM 0 0 0 0 1009.3 - 0.6
21/06:00pm 27.9 33.4 24.6 82 2.3 NE 4 6 2 3 1008.9 1008.7 0.6
21/05:30pm 28.0 33.5 24.7 82 2.3 N 4 7 2 4 1008.7 - 0.6
21/05:00pm 28.1 33.0 24.7 82 2.4 N 7 11 4 6 1008.6 - 0.6
21/04:30pm 28.0 32.4 24.5 81 2.4 N 9 11 5 6 1008.8 - 0.4
21/04:00pm 27.7 31.9 24.7 84 2.1 NNE 11 19 6 10 1008.9 - 0.4
21/03:50pm 27.6 31.3 24.6 84 2.1 N 13 19 7 10 1009.0 - 0.4
21/03:34pm 27.4 32.2 24.4 84 2.1 NNE 7 13 4 7 1009.2 - 0.4
21/03:30pm 27.5 32.4 24.6 84 2.0 NNE 7 11 4 6 1009.2 - 0.4
21/03:00pm 27.7 31.8 24.6 83 2.2 N 11 17 6 9 1009.1 1008.9 0.4
21/02:30pm 27.7 30.9 24.4 82 2.3 N 15 22 8 12 1009.3 - 0.4
21/02:00pm 27.6 30.8 24.3 82 2.3 N 15 22 8 12 1009.9 - 0.4
21/01:30pm 27.5 31.1 24.3 83 2.2 N 13 22 7 12 1010.6 - 0.4
21/01:00pm 27.2 30.6 24.1 83 2.1 N 13 22 7 12 1011.0 - 0.4
21/12:30pm 26.8 30.2 24.0 84 1.9 N 13 19 7 10 1011.5 - 0.4
21/12:00pm 26.0 29.8 24.1 89 1.3 NNE 11 17 6 9 1011.8 1011.6 0.4
21/11:30am 25.7 29.7 23.8 89 1.3 NNE 9 17 5 9 1011.9 - 0.4
21/11:00am 25.9 29.0 23.5 86 1.6 N 13 20 7 11 1012.2 - 0.2
21/10:30am 26.0 29.0 23.3 85 1.8 NNE 13 20 7 11 1012.1 - 0.0
21/10:00am 25.4 28.2 23.0 86 1.6 NNE 13 20 7 11 1012.1 - 0.0
21/09:30am 25.2 27.9 22.9 87 1.6 NNE 13 20 7 11 1011.6 - 0.0
21/09:00am 25.0 27.4 22.9 88 1.4 NNE 15 24 8 13 1011.9 1011.7 5.0
21/08:30am 25.3 27.5 23.3 89 1.4 N 17 24 9 13 1011.3 - 5.0
21/08:00am 24.7 28.9 23.4 92 0.9 NNE 7 13 4 7 1010.7 - 5.0
21/07:30am 24.7 28.6 22.9 90 1.2 NNE 7 11 4 6 1010.2 - 5.0
21/07:00am 24.9 28.5 23.7 93 0.8 NE 11 20 6 11 1009.9 - 5.0
21/06:30am 25.0 29.3 23.7 92 0.9 ENE 7 11 4 6 1009.4 - 5.0
21/06:18am 24.9 28.7 23.5 92 1.0 NE 9 11 5 6 1009.2 - 5.0
21/06:00am 25.1 28.7 23.7 92 1.0 N 11 24 6 13 1009.5 1009.3 4.4
21/05:57am 25.2 28.9 23.9 92 0.9 N 11 20 6 11 1009.4 - 4.0
21/05:30am 25.2 29.3 23.9 92 0.9 NE 9 15 5 8 1008.9 - 3.4
21/05:00am 25.2 29.3 23.9 92 0.9 ENE 9 19 5 10 1008.4 - 3.2
21/04:30am 25.2 29.3 23.9 92 0.9 NE 9 13 5 7 1008.1 - 3.2
21/04:00am 25.3 29.4 24.0 92 0.9 ENE 9 15 5 8 1008.2 - 3.2
21/03:30am 25.5 29.7 24.1 92 1.0 NE 9 17 5 9 1008.3 - 3.2
21/03:00am 25.5 29.3 24.0 91 1.0 ENE 11 17 6 9 1008.2 1008.0 3.2
21/02:30am 25.4 29.5 23.9 91 1.0 ENE 9 15 5 8 1008.4 - 3.2
21/02:00am 25.5 30.0 24.0 91 1.0 ENE 7 11 4 6 1008.7 - 3.2
21/01:30am 25.4 29.9 23.9 91 1.0 ENE 7 13 4 7 1008.9 - 3.2
21/01:00am 25.5 30.2 24.0 91 1.0 ENE 6 9 3 5 1009.0 - 3.2
21/12:30am 25.6 30.1 24.0 91 1.1 NE 7 9 4 5 1009.5 - 3.2
21/12:00am 25.5 30.0 23.9 91 1.1 NNE 7 9 4 5 1009.7 1009.5 3.2
 
Date/Time
EST
Temp
°C
App
Temp
°C
Dew
Point
°C
Rel
Hum
%
Delta-T
°C
Wind Press
QNH
hPa
Press
MSL
hPa
Rain since
9am
mm
Dir  Spd
km/h
Gust
km/h
Spd
kts
Gust
kts
20/11:30pm 25.7 30.2 23.9 90 1.2 NE 7 13 4 7 1009.6 - 3.2
20/11:00pm 25.8 29.8 23.8 89 1.4 NE 9 11 5 6 1009.6 - 3.2
20/10:30pm 25.8 29.7 23.6 88 1.5 NE 9 13 5 7 1009.6 - 3.2
20/10:00pm 25.9 30.1 23.5 86 1.6 NE 7 11 4 6 1009.5 - 3.2

Other Formats:

Comma delimited format used in spreadsheet applications
http://www.bom.gov.au/fwo/IDQ60801/IDQ60801.94170.axf

JavaScript Object Notation format (JSON) in row-major order
http://www.bom.gov.au/fwo/IDQ60801/IDQ60801.94170.json